• Join FlightAware (Why Join?)
  • Login
  • US Flag 
06:26AM EDT


 

Airport Tracker/Info


-or-


 

Live Flight TrackerFlight Track Log ✈ BEE2230 ✈ 25-Sep-2013 ✈ EFTU / TKU - EFHK / HEL

Flight Track Log - Related Links

Times and Time Zones

All times are in EDT time to prevent confusion due to time zone crossing. See the BEE2230 flight status page for this flight to view local times or setup timezone preferences in your user account.

Time Position Orientation Groundspeed Altitude Reporting Facility
EDT Latitude Longitude Course Direction KTS MPH feet Rate Location/Type
11:28PM 60.4852 22.7141 97° East  Level Estimated
11:29PM 60.4752 22.8643 98° East  Level Estimated
11:30PM 60.4650 23.0145 98° East  Level Estimated
11:31PM 60.4481 23.2600 98° East  Level Estimated
11:32PM 60.4306 23.5052 98° East  Level Estimated
11:33PM 60.4128 23.7501 98° East  Level Estimated
11:34PM 60.3944 23.9948 99° East  Level Estimated
11:35PM 60.3756 24.2392 99° East  Level Estimated
11:36PM 60.3564 24.4834 99° East  Level Estimated
11:37PM 60.3367 24.7272 99° East  Level Estimated
11:38PM 60.3172 24.9633 99° East  Level Estimated
11:39PM 60.3172 24.9633 37° Northeast  Level Estimated
11:40PM 60.3172 24.9633 37° Northeast  Level Estimated
11:41PM 60.3172 24.9633 37° Northeast  Level Estimated
11:42PM 60.3172 24.9633 37° Northeast  Level Estimated
11:43PM 60.3172 24.9633 37° Northeast  Level Estimated
11:44PM 60.3172 24.9633 37° Northeast  Level Estimated
11:45PM 60.3172 24.9633 37° Northeast  Level Estimated
11:46PM 60.3172 24.9633 37° Northeast  Level Estimated
11:47PM 60.3172 24.9633 37° Northeast  Level Estimated
11:48PM 60.3172 24.9633 37° Northeast  Level Estimated
11:49PM 60.3172 24.9633 37° Northeast  Level Estimated
11:50PM 60.3172 24.9633 37° Northeast  Level Estimated
11:51PM 60.3172 24.9633 37° Northeast  Level Estimated
11:52PM 60.3172 24.9633 37° Northeast  Level Estimated
11:53PM 60.3172 24.9633 37° Northeast  Level Estimated
11:54PM 60.3172 24.9633 37° Northeast  Level Estimated
11:55PM 60.3172 24.9633 37° Northeast  Level Estimated
11:56PM 60.3172 24.9633 37° Northeast  Level Estimated
11:57PM 60.3172 24.9633 37° Northeast  Level Estimated